LPE0021 SKBO-SEQM
Flight info
| Callsign | LPE0021 |
|---|---|
| Flight time | 1h 9m |
| Altitude | 36000 |
| Route | VAPOM4R OREGA DCT BOKAN DCT QIT |
| Aircraft | A20N/M-SDE2E3FGHIRWXY/LB1 |
Departure
| Time | 2026-05-07 03:05 |
|---|---|
| Airport | El Dorado International Airport (SKBO) |
Arrival
| Time | 2026-05-07 04:14 |
|---|---|
| Airport | Mariscal Sucre International Airport (SEQM) |
| Time | Latitude | Longitude | Altitude | Speed | Heading |
|---|---|---|---|---|---|
| 2026-05-07 02:13 | 4.70084 | -74.14272 | 8371 ft | 0 kts | 197° |
| 2026-05-07 02:38 | 4.70087 | -74.14271 | 8371 ft | 1 kts | 220° |
| 2026-05-07 02:39 | 4.70097 | -74.14262 | 8371 ft | 1 kts | 231° |
| 2026-05-07 02:39 | 4.70109 | -74.14256 | 8371 ft | 2 kts | 191° |
| 2026-05-07 02:39 | 4.70123 | -74.14251 | 8371 ft | 2 kts | 217° |
| 2026-05-07 02:39 | 4.70134 | -74.14240 | 8371 ft | 2 kts | 235° |
| 2026-05-07 02:40 | 4.70141 | -74.14227 | 8371 ft | 2 kts | 254° |
| 2026-05-07 02:40 | 4.70143 | -74.14212 | 8371 ft | 2 kts | 273° |
| 2026-05-07 02:40 | 4.70141 | -74.14198 | 8371 ft | 2 kts | 292° |
| 2026-05-07 02:40 | 4.70136 | -74.14188 | 8371 ft | 0 kts | 305° |
| 2026-05-07 02:41 | 4.70137 | -74.14190 | 8371 ft | 3 kts | 311° |
| 2026-05-07 02:41 | 4.70151 | -74.14204 | 8371 ft | 0 kts | 315° |
| 2026-05-07 02:41 | 4.70155 | -74.14208 | 8371 ft | 0 kts | 307° |
| 2026-05-07 02:48 | 4.70156 | -74.14210 | 8371 ft | 0 kts | 307° |
| 2026-05-07 02:48 | 4.70160 | -74.14216 | 8371 ft | 1 kts | 310° |
| 2026-05-07 02:49 | 4.70173 | -74.14223 | 8371 ft | 2 kts | 347° |
| 2026-05-07 02:49 | 4.70193 | -74.14217 | 8371 ft | 3 kts | 25° |
| 2026-05-07 02:49 | 4.70221 | -74.14208 | 8371 ft | 5 kts | 7° |
| 2026-05-07 02:49 | 4.70253 | -74.14220 | 8371 ft | 5 kts | 316° |
| 2026-05-07 02:50 | 4.70278 | -74.14250 | 8371 ft | 5 kts | 307° |
| 2026-05-07 02:50 | 4.70304 | -74.14286 | 8371 ft | 6 kts | 306° |
| 2026-05-07 02:50 | 4.70334 | -74.14326 | 8371 ft | 7 kts | 308° |
| 2026-05-07 02:50 | 4.70366 | -74.14367 | 8371 ft | 7 kts | 308° |
| 2026-05-07 02:51 | 4.70402 | -74.14414 | 8370 ft | 8 kts | 306° |
| 2026-05-07 02:51 | 4.70435 | -74.14468 | 8370 ft | 9 kts | 282° |
| 2026-05-07 02:51 | 4.70409 | -74.14517 | 8371 ft | 8 kts | 220° |
| 2026-05-07 02:51 | 4.70360 | -74.14555 | 8371 ft | 8 kts | 215° |
| 2026-05-07 02:52 | 4.70308 | -74.14592 | 8371 ft | 9 kts | 217° |
| 2026-05-07 02:52 | 4.70256 | -74.14632 | 8371 ft | 9 kts | 217° |
| 2026-05-07 02:52 | 4.70200 | -74.14674 | 8371 ft | 10 kts | 217° |
| 2026-05-07 02:52 | 4.70143 | -74.14718 | 8371 ft | 10 kts | 217° |
| 2026-05-07 02:53 | 4.70084 | -74.14762 | 8371 ft | 11 kts | 216° |
| 2026-05-07 02:53 | 4.70019 | -74.14809 | 8371 ft | 11 kts | 217° |
| 2026-05-07 02:53 | 4.69954 | -74.14861 | 8370 ft | 12 kts | 218° |
| 2026-05-07 02:53 | 4.69884 | -74.14914 | 8370 ft | 12 kts | 214° |
| 2026-05-07 02:54 | 4.69853 | -74.14978 | 8370 ft | 10 kts | 300° |
| 2026-05-07 02:54 | 4.69898 | -74.15037 | 8370 ft | 10 kts | 307° |
| 2026-05-07 02:54 | 4.69944 | -74.15097 | 8370 ft | 10 kts | 307° |
| 2026-05-07 02:54 | 4.69991 | -74.15158 | 8370 ft | 11 kts | 307° |
| 2026-05-07 02:55 | 4.70039 | -74.15222 | 8370 ft | 11 kts | 307° |
| 2026-05-07 02:55 | 4.70089 | -74.15288 | 8370 ft | 12 kts | 307° |
| 2026-05-07 02:55 | 4.70141 | -74.15356 | 8369 ft | 12 kts | 305° |
| 2026-05-07 02:55 | 4.70193 | -74.15427 | 8369 ft | 12 kts | 307° |
| 2026-05-07 02:56 | 4.70249 | -74.15501 | 8368 ft | 13 kts | 307° |
| 2026-05-07 02:56 | 4.70308 | -74.15578 | 8367 ft | 14 kts | 307° |
| 2026-05-07 02:56 | 4.70369 | -74.15659 | 8366 ft | 14 kts | 307° |
| 2026-05-07 02:56 | 4.70434 | -74.15746 | 8364 ft | 15 kts | 307° |
| 2026-05-07 02:57 | 4.70505 | -74.15839 | 8362 ft | 16 kts | 307° |
| 2026-05-07 02:57 | 4.70575 | -74.15933 | 8361 ft | 17 kts | 305° |
| 2026-05-07 02:57 | 4.70650 | -74.16031 | 8359 ft | 17 kts | 308° |
| 2026-05-07 02:57 | 4.70726 | -74.16132 | 8357 ft | 18 kts | 303° |
| 2026-05-07 02:58 | 4.70803 | -74.16235 | 8356 ft | 18 kts | 308° |
| 2026-05-07 02:58 | 4.70882 | -74.16337 | 8355 ft | 18 kts | 305° |
| 2026-05-07 02:58 | 4.70956 | -74.16436 | 8355 ft | 17 kts | 307° |
| 2026-05-07 02:58 | 4.71030 | -74.16533 | 8355 ft | 17 kts | 307° |
| 2026-05-07 02:59 | 4.71100 | -74.16626 | 8355 ft | 16 kts | 307° |
| 2026-05-07 02:59 | 4.71168 | -74.16716 | 8355 ft | 15 kts | 307° |
| 2026-05-07 02:59 | 4.71176 | -74.16727 | 8355 ft | 0 kts | 307° |
| 2026-05-07 03:01 | 4.71180 | -74.16731 | 8355 ft | 1 kts | 307° |
| 2026-05-07 03:01 | 4.71188 | -74.16742 | 8355 ft | 2 kts | 307° |
| 2026-05-07 03:01 | 4.71199 | -74.16758 | 8355 ft | 2 kts | 296° |
| 2026-05-07 03:01 | 4.71203 | -74.16780 | 8355 ft | 3 kts | 266° |
| 2026-05-07 03:02 | 4.71189 | -74.16802 | 8355 ft | 4 kts | 225° |
| 2026-05-07 03:02 | 4.71163 | -74.16827 | 8355 ft | 5 kts | 223° |
| 2026-05-07 03:02 | 4.71130 | -74.16854 | 8355 ft | 6 kts | 215° |
| 2026-05-07 03:02 | 4.71087 | -74.16880 | 8354 ft | 7 kts | 210° |
| 2026-05-07 03:03 | 4.71035 | -74.16891 | 8354 ft | 7 kts | 154° |
| 2026-05-07 03:03 | 4.71007 | -74.16862 | 8354 ft | 0 kts | 128° |
| 2026-05-07 03:04 | 4.70975 | -74.16819 | 8354 ft | 35 kts | 127° |
| 2026-05-07 03:04 | 4.70653 | -74.16391 | 8355 ft | 113 kts | 127° |
| 2026-05-07 03:04 | 4.70044 | -74.15589 | 8369 ft | 174 kts | 126° |
| 2026-05-07 03:04 | 4.69290 | -74.14552 | 8834 ft | 188 kts | 127° |
| 2026-05-07 03:05 | 4.68515 | -74.13472 | 9523 ft | 191 kts | 134° |
| 2026-05-07 03:05 | 4.67440 | -74.12858 | 10173 ft | 185 kts | 174° |
| 2026-05-07 03:05 | 4.66077 | -74.12943 | 10320 ft | 212 kts | 195° |
| 2026-05-07 03:05 | 4.64693 | -74.13673 | 10566 ft | 235 kts | 221° |
| 2026-05-07 03:06 | 4.63725 | -74.15060 | 10917 ft | 253 kts | 249° |
| 2026-05-07 03:06 | 4.63242 | -74.16791 | 11167 ft | 262 kts | 253° |
| 2026-05-07 03:06 | 4.62621 | -74.18536 | 11409 ft | 266 kts | 244° |
| 2026-05-07 03:06 | 4.61833 | -74.20196 | 11647 ft | 268 kts | 245° |
| 2026-05-07 03:07 | 4.61235 | -74.21992 | 11894 ft | 279 kts | 257° |
| 2026-05-07 03:07 | 4.60843 | -74.24002 | 12144 ft | 301 kts | 261° |
| 2026-05-07 03:07 | 4.60439 | -74.26121 | 12381 ft | 322 kts | 256° |
| 2026-05-07 03:07 | 4.59730 | -74.28320 | 12607 ft | 341 kts | 246° |
| 2026-05-07 03:08 | 4.58682 | -74.30537 | 12817 ft | 356 kts | 242° |
| 2026-05-07 03:08 | 4.57552 | -74.32742 | 13020 ft | 360 kts | 242° |
| 2026-05-07 03:08 | 4.56387 | -74.34984 | 13209 ft | 363 kts | 241° |
| 2026-05-07 03:08 | 4.55209 | -74.37257 | 13403 ft | 366 kts | 242° |
| 2026-05-07 03:09 | 4.54035 | -74.39532 | 13598 ft | 367 kts | 242° |
| 2026-05-07 03:09 | 4.52876 | -74.41788 | 13789 ft | 369 kts | 242° |
| 2026-05-07 03:09 | 4.51697 | -74.44087 | 13984 ft | 370 kts | 242° |
| 2026-05-07 03:09 | 4.50519 | -74.46386 | 14158 ft | 371 kts | 242° |
| 2026-05-07 03:10 | 4.49330 | -74.48710 | 14349 ft | 372 kts | 242° |
| 2026-05-07 03:10 | 4.48137 | -74.51042 | 14593 ft | 373 kts | 242° |
| 2026-05-07 03:10 | 4.46949 | -74.53362 | 14845 ft | 374 kts | 242° |
| 2026-05-07 03:10 | 4.45768 | -74.55670 | 15059 ft | 376 kts | 242° |
| 2026-05-07 03:11 | 4.44562 | -74.58028 | 15317 ft | 378 kts | 242° |
| 2026-05-07 03:11 | 4.43343 | -74.60409 | 15549 ft | 380 kts | 242° |
| 2026-05-07 03:11 | 4.42359 | -74.62332 | 15742 ft | 381 kts | 242° |
| 2026-05-07 03:11 | 4.42035 | -74.62965 | 15813 ft | 382 kts | 242° |
| 2026-05-07 03:12 | 4.40807 | -74.65363 | 16026 ft | 383 kts | 242° |
| 2026-05-07 03:12 | 4.39599 | -74.67721 | 16274 ft | 385 kts | 242° |
| 2026-05-07 03:12 | 4.38371 | -74.70110 | 16504 ft | 386 kts | 242° |
| 2026-05-07 03:12 | 4.37232 | -74.72319 | 16710 ft | 388 kts | 242° |
| 2026-05-07 03:13 | 4.36082 | -74.74548 | 16927 ft | 389 kts | 242° |
| 2026-05-07 03:13 | 4.34836 | -74.76966 | 17177 ft | 391 kts | 242° |
| 2026-05-07 03:13 | 4.33585 | -74.79394 | 17441 ft | 393 kts | 242° |
| 2026-05-07 03:13 | 4.32321 | -74.81847 | 17671 ft | 394 kts | 242° |
| 2026-05-07 03:14 | 4.31058 | -74.84298 | 17890 ft | 395 kts | 242° |
| 2026-05-07 03:14 | 4.29803 | -74.86732 | 18139 ft | 396 kts | 242° |
| 2026-05-07 03:14 | 4.27250 | -74.91686 | 18644 ft | 399 kts | 242° |
| 2026-05-07 03:15 | 4.25990 | -74.94134 | 18875 ft | 399 kts | 242° |
| 2026-05-07 03:15 | 4.24706 | -74.96625 | 19112 ft | 400 kts | 242° |
| 2026-05-07 03:15 | 4.23424 | -74.99113 | 19330 ft | 401 kts | 242° |
| 2026-05-07 03:15 | 4.22142 | -75.01601 | 19579 ft | 402 kts | 242° |
| 2026-05-07 03:16 | 4.20776 | -75.04038 | 19810 ft | 402 kts | 238° |
| 2026-05-07 03:16 | 4.19240 | -75.06391 | 20034 ft | 403 kts | 234° |
| 2026-05-07 03:16 | 4.17575 | -75.08656 | 20265 ft | 404 kts | 232° |
| 2026-05-07 03:16 | 4.15875 | -75.10917 | 20509 ft | 405 kts | 232° |
| 2026-05-07 03:17 | 4.14194 | -75.13148 | 20728 ft | 405 kts | 232° |
| 2026-05-07 03:17 | 4.12497 | -75.15404 | 20957 ft | 406 kts | 232° |
| 2026-05-07 03:17 | 4.10799 | -75.17666 | 21187 ft | 407 kts | 232° |
| 2026-05-07 03:17 | 4.09090 | -75.19947 | 21414 ft | 408 kts | 232° |
| 2026-05-07 03:18 | 4.07392 | -75.22214 | 21649 ft | 408 kts | 232° |
| 2026-05-07 03:18 | 4.05665 | -75.24520 | 21880 ft | 410 kts | 232° |
| 2026-05-07 03:18 | 4.03966 | -75.26790 | 22113 ft | 411 kts | 232° |
| 2026-05-07 03:18 | 4.02248 | -75.29086 | 22347 ft | 412 kts | 232° |
| 2026-05-07 03:19 | 4.00523 | -75.31390 | 22587 ft | 412 kts | 232° |
| 2026-05-07 03:19 | 3.98800 | -75.33692 | 22831 ft | 413 kts | 232° |
| 2026-05-07 03:19 | 3.97072 | -75.36002 | 23071 ft | 415 kts | 232° |
| 2026-05-07 03:19 | 3.95336 | -75.38322 | 23310 ft | 416 kts | 232° |
| 2026-05-07 03:20 | 3.93594 | -75.40650 | 23547 ft | 417 kts | 232° |
| 2026-05-07 03:20 | 3.91859 | -75.42968 | 23788 ft | 418 kts | 232° |
| 2026-05-07 03:20 | 3.90090 | -75.45329 | 24034 ft | 420 kts | 232° |
| 2026-05-07 03:20 | 3.88292 | -75.47652 | 24277 ft | 421 kts | 229° |
| 2026-05-07 03:21 | 3.86293 | -75.49834 | 24522 ft | 422 kts | 224° |
| 2026-05-07 03:21 | 3.84104 | -75.51814 | 24766 ft | 422 kts | 218° |
| 2026-05-07 03:21 | 3.81803 | -75.53642 | 25011 ft | 423 kts | 217° |
| 2026-05-07 03:21 | 3.79464 | -75.55458 | 25257 ft | 425 kts | 217° |
| 2026-05-07 03:22 | 3.77127 | -75.57268 | 25501 ft | 426 kts | 217° |
| 2026-05-07 03:22 | 3.74793 | -75.59080 | 25746 ft | 427 kts | 217° |
| 2026-05-07 03:22 | 3.72437 | -75.60913 | 25991 ft | 429 kts | 217° |
| 2026-05-07 03:22 | 3.70081 | -75.62749 | 26235 ft | 430 kts | 217° |
| 2026-05-07 03:23 | 3.67691 | -75.64614 | 26482 ft | 431 kts | 217° |
| 2026-05-07 03:23 | 3.65330 | -75.66457 | 26727 ft | 433 kts | 217° |
| 2026-05-07 03:23 | 3.62923 | -75.68336 | 26975 ft | 434 kts | 217° |
| 2026-05-07 03:23 | 3.60547 | -75.70192 | 27220 ft | 436 kts | 217° |
| 2026-05-07 03:24 | 3.58136 | -75.72073 | 27467 ft | 437 kts | 217° |
| 2026-05-07 03:24 | 3.55722 | -75.73959 | 27714 ft | 438 kts | 217° |
| 2026-05-07 03:24 | 3.53311 | -75.75841 | 27960 ft | 439 kts | 217° |
| 2026-05-07 03:24 | 3.50908 | -75.77718 | 28206 ft | 440 kts | 217° |
| 2026-05-07 03:25 | 3.48487 | -75.79607 | 28454 ft | 441 kts | 217° |
| 2026-05-07 03:25 | 3.46039 | -75.81519 | 28706 ft | 443 kts | 217° |
| 2026-05-07 03:25 | 3.43621 | -75.83408 | 28958 ft | 444 kts | 217° |
| 2026-05-07 03:25 | 3.41168 | -75.85323 | 29214 ft | 445 kts | 217° |
| 2026-05-07 03:26 | 3.38712 | -75.87241 | 29469 ft | 448 kts | 217° |
| 2026-05-07 03:26 | 3.36265 | -75.89153 | 29721 ft | 449 kts | 217° |
| 2026-05-07 03:26 | 3.33766 | -75.91102 | 29980 ft | 451 kts | 217° |
| 2026-05-07 03:26 | 3.31291 | -75.93032 | 30233 ft | 450 kts | 217° |
| 2026-05-07 03:27 | 3.28814 | -75.94965 | 30489 ft | 450 kts | 217° |
| 2026-05-07 03:27 | 3.26351 | -75.96888 | 30744 ft | 450 kts | 217° |
| 2026-05-07 03:27 | 3.23874 | -75.98822 | 31000 ft | 450 kts | 217° |
| 2026-05-07 03:27 | 3.21397 | -76.00754 | 31257 ft | 449 kts | 217° |
| 2026-05-07 03:28 | 3.18908 | -76.02696 | 31516 ft | 449 kts | 217° |
| 2026-05-07 03:28 | 3.16450 | -76.04615 | 31772 ft | 448 kts | 217° |
| 2026-05-07 03:28 | 3.14000 | -76.06526 | 32028 ft | 446 kts | 217° |
| 2026-05-07 03:28 | 3.11543 | -76.08444 | 32285 ft | 446 kts | 217° |
| 2026-05-07 03:29 | 3.09116 | -76.10337 | 32541 ft | 446 kts | 217° |
| 2026-05-07 03:29 | 3.06644 | -76.12265 | 32823 ft | 445 kts | 217° |
| 2026-05-07 03:29 | 3.04198 | -76.14173 | 33110 ft | 443 kts | 217° |
| 2026-05-07 03:29 | 3.01767 | -76.16069 | 33397 ft | 442 kts | 217° |
| 2026-05-07 03:30 | 2.99345 | -76.17957 | 33686 ft | 440 kts | 218° |
| 2026-05-07 03:30 | 2.96934 | -76.19838 | 33973 ft | 440 kts | 218° |
| 2026-05-07 03:30 | 2.94512 | -76.21726 | 34263 ft | 439 kts | 218° |
| 2026-05-07 03:30 | 2.92114 | -76.23596 | 34552 ft | 437 kts | 218° |
| 2026-05-07 03:31 | 2.89724 | -76.25460 | 34840 ft | 436 kts | 218° |
| 2026-05-07 03:31 | 2.87306 | -76.27345 | 35134 ft | 436 kts | 218° |
| 2026-05-07 03:31 | 2.84909 | -76.29215 | 35428 ft | 437 kts | 218° |
| 2026-05-07 03:31 | 2.82496 | -76.31096 | 35563 ft | 437 kts | 218° |
| 2026-05-07 03:32 | 2.80084 | -76.32977 | 35559 ft | 438 kts | 218° |
| 2026-05-07 03:32 | 2.75264 | -76.36735 | 35546 ft | 438 kts | 218° |
| 2026-05-07 03:33 | 2.70454 | -76.40485 | 35516 ft | 437 kts | 218° |
| 2026-05-07 03:33 | 2.65640 | -76.44236 | 35494 ft | 437 kts | 218° |
| 2026-05-07 03:34 | 2.60833 | -76.47983 | 35438 ft | 437 kts | 218° |
| 2026-05-07 03:34 | 2.56043 | -76.51714 | 35375 ft | 437 kts | 218° |
| 2026-05-07 03:35 | 2.51213 | -76.55477 | 35333 ft | 438 kts | 218° |
| 2026-05-07 03:35 | 2.46440 | -76.59197 | 35295 ft | 436 kts | 218° |
| 2026-05-07 03:36 | 2.41641 | -76.62934 | 35288 ft | 435 kts | 218° |
| 2026-05-07 03:36 | 2.36840 | -76.66674 | 35286 ft | 435 kts | 218° |
| 2026-05-07 03:37 | 2.32070 | -76.70389 | 35302 ft | 435 kts | 218° |
| 2026-05-07 03:37 | 2.27284 | -76.74116 | 35299 ft | 434 kts | 218° |
| 2026-05-07 03:38 | 2.22513 | -76.77832 | 35281 ft | 434 kts | 218° |
| 2026-05-07 03:38 | 2.17718 | -76.81564 | 35280 ft | 433 kts | 218° |
| 2026-05-07 03:39 | 2.12957 | -76.85272 | 35273 ft | 433 kts | 218° |
| 2026-05-07 03:39 | 2.08194 | -76.88979 | 35263 ft | 432 kts | 218° |
| 2026-05-07 03:40 | 2.03445 | -76.92676 | 35226 ft | 432 kts | 218° |
| 2026-05-07 03:40 | 1.98726 | -76.96351 | 35202 ft | 431 kts | 218° |
| 2026-05-07 03:41 | 1.93961 | -77.00060 | 35175 ft | 432 kts | 218° |
| 2026-05-07 03:41 | 1.89226 | -77.03744 | 35196 ft | 432 kts | 218° |
| 2026-05-07 03:42 | 1.84450 | -77.07460 | 35228 ft | 432 kts | 218° |
| 2026-05-07 03:42 | 1.79712 | -77.11147 | 35239 ft | 432 kts | 218° |
| 2026-05-07 03:43 | 1.74938 | -77.14861 | 35249 ft | 431 kts | 218° |
| 2026-05-07 03:43 | 1.70202 | -77.18546 | 35248 ft | 432 kts | 218° |
| 2026-05-07 03:44 | 1.65443 | -77.22249 | 35265 ft | 432 kts | 218° |
| 2026-05-07 03:44 | 1.60703 | -77.25936 | 35278 ft | 432 kts | 218° |
| 2026-05-07 03:45 | 1.55953 | -77.29631 | 35290 ft | 432 kts | 218° |
| 2026-05-07 03:45 | 1.51209 | -77.33322 | 35290 ft | 432 kts | 218° |
| 2026-05-07 03:46 | 1.46442 | -77.37031 | 35291 ft | 432 kts | 218° |
| 2026-05-07 03:46 | 1.41704 | -77.40715 | 35283 ft | 432 kts | 218° |
| 2026-05-07 03:47 | 1.36933 | -77.44425 | 35299 ft | 431 kts | 218° |
| 2026-05-07 03:47 | 1.32209 | -77.48099 | 35345 ft | 430 kts | 218° |
| 2026-05-07 03:48 | 1.27465 | -77.51789 | 35344 ft | 431 kts | 218° |
| 2026-05-07 03:48 | 1.22712 | -77.55486 | 35377 ft | 431 kts | 218° |
| 2026-05-07 03:49 | 1.17967 | -77.59176 | 35419 ft | 431 kts | 218° |
| 2026-05-07 03:49 | 1.13227 | -77.62862 | 35433 ft | 431 kts | 218° |
| 2026-05-07 03:50 | 1.08469 | -77.66563 | 35478 ft | 431 kts | 218° |
| 2026-05-07 03:50 | 1.03738 | -77.70242 | 35521 ft | 430 kts | 218° |
| 2026-05-07 03:51 | 0.98992 | -77.73932 | 35569 ft | 431 kts | 218° |
| 2026-05-07 03:51 | 0.94244 | -77.77624 | 35584 ft | 431 kts | 218° |
| 2026-05-07 03:52 | 0.89512 | -77.81305 | 35581 ft | 431 kts | 218° |
| 2026-05-07 03:52 | 0.84764 | -77.85002 | 35590 ft | 431 kts | 218° |
| 2026-05-07 03:53 | 0.80018 | -77.88682 | 35639 ft | 431 kts | 217° |
| 2026-05-07 03:53 | 0.75218 | -77.92256 | 35348 ft | 425 kts | 217° |
| 2026-05-07 03:53 | 0.72851 | -77.94008 | 35053 ft | 421 kts | 216° |
| 2026-05-07 03:54 | 0.70507 | -77.95747 | 34761 ft | 421 kts | 216° |
| 2026-05-07 03:54 | 0.68173 | -77.97480 | 34472 ft | 422 kts | 216° |
| 2026-05-07 03:54 | 0.65795 | -77.99248 | 34175 ft | 423 kts | 216° |
| 2026-05-07 03:54 | 0.63430 | -78.01009 | 33882 ft | 424 kts | 216° |
| 2026-05-07 03:55 | 0.61051 | -78.02779 | 33571 ft | 425 kts | 216° |
| 2026-05-07 03:55 | 0.58691 | -78.04536 | 33157 ft | 427 kts | 216° |
| 2026-05-07 03:55 | 0.56308 | -78.06313 | 32634 ft | 429 kts | 216° |
| 2026-05-07 03:55 | 0.53883 | -78.08120 | 32019 ft | 430 kts | 216° |
| 2026-05-07 03:56 | 0.51498 | -78.09896 | 31386 ft | 431 kts | 216° |
| 2026-05-07 03:56 | 0.49071 | -78.11704 | 30683 ft | 433 kts | 215° |
| 2026-05-07 03:56 | 0.46633 | -78.13519 | 29988 ft | 435 kts | 216° |
| 2026-05-07 03:56 | 0.44229 | -78.15307 | 29433 ft | 433 kts | 215° |
| 2026-05-07 03:57 | 0.41797 | -78.17117 | 28880 ft | 431 kts | 215° |
| 2026-05-07 03:57 | 0.39393 | -78.18906 | 28370 ft | 429 kts | 215° |
| 2026-05-07 03:57 | 0.37022 | -78.20673 | 27881 ft | 426 kts | 215° |
| 2026-05-07 03:57 | 0.34671 | -78.22423 | 27403 ft | 423 kts | 215° |
| 2026-05-07 03:58 | 0.32288 | -78.24197 | 26921 ft | 421 kts | 215° |
| 2026-05-07 03:58 | 0.29933 | -78.25948 | 26426 ft | 419 kts | 215° |
| 2026-05-07 03:58 | 0.27604 | -78.27683 | 25945 ft | 417 kts | 215° |
| 2026-05-07 03:58 | 0.25291 | -78.29407 | 25473 ft | 414 kts | 215° |
| 2026-05-07 03:59 | 0.22996 | -78.31117 | 24984 ft | 413 kts | 215° |
| 2026-05-07 03:59 | 0.20699 | -78.32825 | 24500 ft | 411 kts | 215° |
| 2026-05-07 03:59 | 0.18395 | -78.34541 | 24018 ft | 409 kts | 214° |
| 2026-05-07 03:59 | 0.16135 | -78.36226 | 23553 ft | 407 kts | 214° |
| 2026-05-07 04:00 | 0.13850 | -78.37928 | 23106 ft | 405 kts | 214° |
| 2026-05-07 04:00 | 0.11618 | -78.39590 | 22641 ft | 403 kts | 214° |
| 2026-05-07 04:00 | 0.09346 | -78.41284 | 22177 ft | 402 kts | 214° |
| 2026-05-07 04:00 | 0.07113 | -78.42947 | 21731 ft | 400 kts | 214° |
| 2026-05-07 04:01 | 0.04883 | -78.44607 | 21264 ft | 399 kts | 214° |
| 2026-05-07 04:01 | 0.02651 | -78.46270 | 20772 ft | 398 kts | 214° |
| 2026-05-07 04:01 | 0.00458 | -78.47903 | 20415 ft | 393 kts | 214° |
| 2026-05-07 04:01 | -0.01747 | -78.49519 | 20058 ft | 386 kts | 211° |
| 2026-05-07 04:02 | -0.04131 | -78.50613 | 19684 ft | 375 kts | 191° |
| 2026-05-07 04:02 | -0.06696 | -78.50877 | 19342 ft | 363 kts | 174° |
| 2026-05-07 04:02 | -0.09198 | -78.50639 | 19038 ft | 356 kts | 171° |
| 2026-05-07 04:02 | -0.11637 | -78.50356 | 18746 ft | 350 kts | 171° |
| 2026-05-07 04:03 | -0.14021 | -78.50085 | 18545 ft | 340 kts | 171° |
| 2026-05-07 04:03 | -0.16386 | -78.49870 | 18291 ft | 334 kts | 173° |
| 2026-05-07 04:03 | -0.18696 | -78.49690 | 18026 ft | 328 kts | 173° |
| 2026-05-07 04:03 | -0.20959 | -78.49516 | 17794 ft | 321 kts | 173° |
| 2026-05-07 04:04 | -0.23151 | -78.49347 | 17588 ft | 313 kts | 172° |
| 2026-05-07 04:04 | -0.25317 | -78.49178 | 17389 ft | 305 kts | 172° |
| 2026-05-07 04:04 | -0.27403 | -78.49012 | 17210 ft | 298 kts | 172° |
| 2026-05-07 04:04 | -0.29442 | -78.48850 | 17023 ft | 291 kts | 172° |
| 2026-05-07 04:05 | -0.31458 | -78.48691 | 16853 ft | 284 kts | 172° |
| 2026-05-07 04:05 | -0.33413 | -78.48537 | 16677 ft | 277 kts | 172° |
| 2026-05-07 04:05 | -0.35294 | -78.48313 | 16501 ft | 268 kts | 164° |
| 2026-05-07 04:05 | -0.37057 | -78.47723 | 16295 ft | 261 kts | 151° |
| 2026-05-07 04:06 | -0.38602 | -78.46827 | 16075 ft | 255 kts | 143° |
| 2026-05-07 04:06 | -0.39993 | -78.45757 | 15857 ft | 249 kts | 136° |
| 2026-05-07 04:06 | -0.41233 | -78.44550 | 15617 ft | 244 kts | 130° |
| 2026-05-07 04:06 | -0.42235 | -78.43201 | 15365 ft | 238 kts | 109° |
| 2026-05-07 04:07 | -0.42393 | -78.41599 | 15078 ft | 234 kts | 76° |
| 2026-05-07 04:07 | -0.41672 | -78.40179 | 14842 ft | 230 kts | 49° |
| 2026-05-07 04:07 | -0.40404 | -78.39294 | 14601 ft | 216 kts | 30° |
| 2026-05-07 04:07 | -0.39050 | -78.38668 | 14178 ft | 212 kts | 27° |
| 2026-05-07 04:08 | -0.37719 | -78.38092 | 13788 ft | 208 kts | 26° |
| 2026-05-07 04:08 | -0.36395 | -78.37512 | 13400 ft | 203 kts | 27° |
| 2026-05-07 04:08 | -0.35121 | -78.36944 | 13019 ft | 199 kts | 27° |
| 2026-05-07 04:08 | -0.33857 | -78.36377 | 12644 ft | 195 kts | 27° |
| 2026-05-07 04:09 | -0.32643 | -78.35828 | 12282 ft | 191 kts | 26° |
| 2026-05-07 04:09 | -0.31431 | -78.35287 | 11922 ft | 187 kts | 23° |
| 2026-05-07 04:09 | -0.30178 | -78.34929 | 11560 ft | 185 kts | 12° |
| 2026-05-07 04:09 | -0.28919 | -78.34804 | 11244 ft | 179 kts | 4° |
| 2026-05-07 04:10 | -0.27691 | -78.34797 | 10937 ft | 172 kts | 1° |
| 2026-05-07 04:10 | -0.26502 | -78.34834 | 10551 ft | 170 kts | 359° |
| 2026-05-07 04:10 | -0.25329 | -78.34885 | 10197 ft | 167 kts | 358° |
| 2026-05-07 04:10 | -0.24164 | -78.34940 | 9925 ft | 167 kts | 357° |
| 2026-05-07 04:11 | -0.23005 | -78.35012 | 9883 ft | 166 kts | 356° |
| 2026-05-07 04:11 | -0.21879 | -78.35081 | 9686 ft | 157 kts | 1° |
| 2026-05-07 04:11 | -0.20805 | -78.34995 | 9306 ft | 155 kts | 359° |
| 2026-05-07 04:11 | -0.19730 | -78.35133 | 8983 ft | 165 kts | 352° |
| 2026-05-07 04:12 | -0.18590 | -78.35176 | 8949 ft | 160 kts | 2° |
| 2026-05-07 04:12 | -0.17421 | -78.35206 | 8446 ft | 181 kts | 356° |
| 2026-05-07 04:12 | -0.16098 | -78.35263 | 8490 ft | 188 kts | 358° |
| 2026-05-07 04:12 | -0.14835 | -78.35318 | 8242 ft | 177 kts | 357° |
| 2026-05-07 04:13 | -0.13621 | -78.35384 | 7982 ft | 165 kts | 359° |
| 2026-05-07 04:13 | -0.12552 | -78.35432 | 7891 ft | 130 kts | 356° |
| 2026-05-07 04:13 | -0.11923 | -78.35464 | 7857 ft | 65 kts | 357° |
| 2026-05-07 04:13 | -0.11473 | -78.35481 | 7839 ft | 62 kts | 359° |
| 2026-05-07 04:14 | -0.11050 | -78.35501 | 7829 ft | 59 kts | 357° |
| 2026-05-07 04:14 | -0.10821 | -78.35509 | 7825 ft | 8 kts | 359° |
| 2026-05-07 04:14 | -0.10752 | -78.35512 | 7824 ft | 11 kts | 356° |
| 2026-05-07 04:14 | -0.10667 | -78.35516 | 7822 ft | 13 kts | 358° |
| 2026-05-07 04:15 | -0.10582 | -78.35545 | 7819 ft | 13 kts | 300° |
| 2026-05-07 04:15 | -0.10574 | -78.35603 | 7819 ft | 0 kts | 268° |
| 2026-05-07 04:16 | -0.10575 | -78.35615 | 7819 ft | 2 kts | 268° |
| 2026-05-07 04:16 | -0.10575 | -78.35636 | 7819 ft | 3 kts | 266° |
| 2026-05-07 04:17 | -0.10583 | -78.35662 | 7818 ft | 4 kts | 243° |
| 2026-05-07 04:17 | -0.10605 | -78.35683 | 7818 ft | 4 kts | 204° |
| 2026-05-07 04:17 | -0.10636 | -78.35688 | 7819 ft | 4 kts | 182° |
| 2026-05-07 04:17 | -0.10662 | -78.35689 | 7820 ft | 3 kts | 180° |
| 2026-05-07 04:18 | -0.10680 | -78.35689 | 7820 ft | 1 kts | 178° |
| 2026-05-07 04:18 | -0.10689 | -78.35688 | 7821 ft | 10 kts | 178° |
| 2026-05-07 04:18 | -0.10843 | -78.35680 | 7825 ft | 22 kts | 176° |
| 2026-05-07 04:18 | -0.10993 | -78.35673 | 7827 ft | 20 kts | 178° |
| 2026-05-07 04:19 | -0.11128 | -78.35667 | 7829 ft | 18 kts | 178° |
| 2026-05-07 04:19 | -0.11253 | -78.35662 | 7831 ft | 16 kts | 177° |
| 2026-05-07 04:19 | -0.11364 | -78.35657 | 7834 ft | 15 kts | 177° |
| 2026-05-07 04:19 | -0.11463 | -78.35653 | 7837 ft | 12 kts | 178° |
| 2026-05-07 04:20 | -0.11547 | -78.35649 | 7840 ft | 14 kts | 177° |
| 2026-05-07 04:20 | -0.11756 | -78.35641 | 7847 ft | 34 kts | 178° |
| 2026-05-07 04:20 | -0.11977 | -78.35634 | 7858 ft | 28 kts | 175° |
| 2026-05-07 04:21 | -0.12283 | -78.35618 | 7875 ft | 15 kts | 176° |
| 2026-05-07 04:21 | -0.12357 | -78.35648 | 7878 ft | 5 kts | 249° |
| 2026-05-07 04:21 | -0.12361 | -78.35691 | 7878 ft | 7 kts | 271° |
| 2026-05-07 04:21 | -0.12361 | -78.35747 | 7877 ft | 9 kts | 268° |
| 2026-05-07 04:22 | -0.12369 | -78.35819 | 7876 ft | 10 kts | 247° |
| 2026-05-07 04:22 | -0.12426 | -78.35841 | 7878 ft | 8 kts | 181° |
| 2026-05-07 04:22 | -0.12472 | -78.35841 | 7881 ft | 4 kts | 178° |
| 2026-05-07 04:22 | -0.12494 | -78.35840 | 7882 ft | 1 kts | 178° |
| 2026-05-07 04:23 | -0.12534 | -78.35841 | 7884 ft | 7 kts | 202° |
| 2026-05-07 04:23 | -0.12548 | -78.35886 | 7884 ft | 7 kts | 267° |
| 2026-05-07 04:23 | -0.12549 | -78.35931 | 7883 ft | 0 kts | 268° |